Terminal Aerodrome Forecast
Issued by NWS

Home | Current Version | Previous Version | Text Only | Print | Product List | Glossary On
Versions: 1 2 3 4 5 6 7 8 9 10 11 12 13 14 15 16
815
FTAK31 PAJN 031733
TAFAJN
TAF
PAJN 031733Z 0318/0418 28005KT P6SM FEW006 SCT030 BKN060
     FM032100 25008KT P6SM SCT060 SCT150
     FM040400 VRB04KT P6SM VCSH BKN060
     FM040800 13004KT P6SM VCSH BKN060=

USA.gov is the U.S. government's official web portal to all federal, state and local government web resources and services.